createdAt,value
2023-01-20T00:06:47.246Z,1.90
2023-01-20T00:30:16.852Z,1.80
2023-01-20T00:55:59.186Z,1.50
2023-01-20T01:16:08.392Z,1.40
2023-01-20T02:01:07.102Z,1.50
2023-01-20T02:26:46.635Z,1.40
2023-01-20T03:07:02.002Z,1.70
2023-01-20T03:17:41.074Z,1.50
2023-01-20T03:58:18.226Z,1.80
2023-01-20T04:28:39.503Z,1.90
2023-01-20T04:53:24.822Z,2.00
2023-01-20T06:03:36.316Z,2.20
2023-01-20T07:04:19.950Z,2.10
2023-01-20T07:29:28.019Z,2.10
2023-01-20T09:19:20.075Z,3.30
2023-01-20T09:54:26.930Z,3.20
2023-01-20T10:20:16.090Z,3.20
2023-01-20T10:34:56.761Z,2.90
2023-01-20T11:42:30.538Z,3.60
2023-01-20T12:17:43.859Z,3.20
2023-01-20T12:53:39.057Z,2.40
2023-01-20T13:23:38.143Z,2.60
2023-01-20T14:19:09.349Z,2.30
2023-01-20T14:54:36.586Z,2.20
2023-01-20T15:15:31.793Z,2.10
2023-01-20T15:55:34.142Z,2.10
2023-01-20T16:26:12.948Z,2.00
2023-01-20T17:47:00.587Z,1.60
2023-01-20T18:12:58.054Z,1.70
2023-01-20T18:17:18.268Z,1.70
2023-01-20T18:38:18.205Z,1.80
2023-01-20T19:13:44.035Z,1.90
2023-01-20T19:38:24.720Z,2.00
2023-01-20T20:04:01.124Z,2.00
2023-01-20T20:49:51.112Z,2.00
2023-01-20T21:15:23.730Z,1.90
2023-01-20T21:50:31.168Z,1.90
2023-01-20T22:21:04.973Z,1.80
2023-01-20T22:51:28.370Z,1.90
2023-01-20T23:21:57.727Z,1.70
2023-01-20T23:47:25.237Z,1.70
